sensor_id;sensor_type;location;lat;lon;timestamp;temperature;humidity
10512;DHT22;5304;48.604;2.096;2023-10-08T04:10:22;10.50;99.90
10512;DHT22;5304;48.604;2.096;2023-10-08T04:13:25;10.50;99.90
10512;DHT22;5304;48.604;2.096;2023-10-08T04:16:10;10.50;99.90
10512;DHT22;5304;48.604;2.096;2023-10-08T04:18:55;10.50;99.90
10512;DHT22;5304;48.604;2.096;2023-10-08T04:21:39;10.50;99.90
10512;DHT22;5304;48.604;2.096;2023-10-08T04:24:27;10.50;99.90
10512;DHT22;5304;48.604;2.096;2023-10-08T04:27:22;10.40;99.90
10512;DHT22;5304;48.604;2.096;2023-10-08T04:30:07;10.50;99.90
10512;DHT22;5304;48.604;2.096;2023-10-08T04:32:54;10.60;99.90
10512;DHT22;5304;48.604;2.096;2023-10-08T04:35:40;10.70;99.90
10512;DHT22;5304;48.604;2.096;2023-10-08T04:38:32;10.70;99.90
10512;DHT22;5304;48.604;2.096;2023-10-08T04:41:23;10.70;99.90
10512;DHT22;5304;48.604;2.096;2023-10-08T04:44:28;10.60;99.90
10512;DHT22;5304;48.604;2.096;2023-10-08T04:47:16;10.50;99.90
10512;DHT22;5304;48.604;2.096;2023-10-08T04:50:16;10.50;99.90
10512;DHT22;5304;48.604;2.096;2023-10-08T04:53:04;10.40;99.90
10512;DHT22;5304;48.604;2.096;2023-10-08T04:55:52;10.40;99.90
10512;DHT22;5304;48.604;2.096;2023-10-08T04:58:40;10.40;99.90
10512;DHT22;5304;48.604;2.096;2023-10-08T05:01:24;10.30;99.90
10512;DHT22;5304;48.604;2.096;2023-10-08T05:04:22;10.30;99.90
10512;DHT22;5304;48.604;2.096;2023-10-08T05:07:17;10.40;99.90
10512;DHT22;5304;48.604;2.096;2023-10-08T05:10:07;10.50;99.90
10512;DHT22;5304;48.604;2.096;2023-10-08T05:12:56;10.50;99.90
10512;DHT22;5304;48.604;2.096;2023-10-08T05:15:49;10.50;99.90
10512;DHT22;5304;48.604;2.096;2023-10-08T05:18:33;10.40;99.90
10512;DHT22;5304;48.604;2.096;2023-10-08T05:21:37;10.30;99.90
10512;DHT22;5304;48.604;2.096;2023-10-08T05:24:35;10.30;99.90
10512;DHT22;5304;48.604;2.096;2023-10-08T05:27:22;10.20;99.90
10512;DHT22;5304;48.604;2.096;2023-10-08T05:30:40;10.20;99.90
10512;DHT22;5304;48.604;2.096;2023-10-08T05:33:38;10.10;99.90
10512;DHT22;5304;48.604;2.096;2023-10-08T05:36:44;10.10;99.90
10512;DHT22;5304;48.604;2.096;2023-10-08T05:39:43;10.00;99.90
10512;DHT22;5304;48.604;2.096;2023-10-08T05:42:31;10.00;99.90
10512;DHT22;5304;48.604;2.096;2023-10-08T05:45:16;9.90;99.90
10512;DHT22;5304;48.604;2.096;2023-10-08T05:48:13;9.90;99.90
10512;DHT22;5304;48.604;2.096;2023-10-08T05:51:06;10.00;99.90
10512;DHT22;5304;48.604;2.096;2023-10-08T05:53:57;10.10;99.90
10512;DHT22;5304;48.604;2.096;2023-10-08T05:56:46;10.20;99.90
10512;DHT22;5304;48.604;2.096;2023-10-08T05:59:50;10.30;99.90
10512;DHT22;5304;48.604;2.096;2023-10-08T06:02:42;10.20;99.90
10512;DHT22;5304;48.604;2.096;2023-10-08T06:05:46;10.20;99.90
10512;DHT22;5304;48.604;2.096;2023-10-08T06:08:46;10.10;99.90
10512;DHT22;5304;48.604;2.096;2023-10-08T06:11:57;10.20;99.90
10512;DHT22;5304;48.604;2.096;2023-10-08T06:14:51;10.30;99.90
10512;DHT22;5304;48.604;2.096;2023-10-08T06:17:51;10.40;99.90
10512;DHT22;5304;48.604;2.096;2023-10-08T06:20:49;10.30;99.90
10512;DHT22;5304;48.604;2.096;2023-10-08T06:23:40;10.20;99.90
10512;DHT22;5304;48.604;2.096;2023-10-08T06:26:26;10.20;99.90
10512;DHT22;5304;48.604;2.096;2023-10-08T06:29:12;10.20;99.90
10512;DHT22;5304;48.604;2.096;2023-10-08T06:32:03;10.20;99.90
10512;DHT22;5304;48.604;2.096;2023-10-08T06:34:47;10.10;99.90
10512;DHT22;5304;48.604;2.096;2023-10-08T06:37:31;10.10;99.90
10512;DHT22;5304;48.604;2.096;2023-10-08T06:40:18;10.30;99.90
10512;DHT22;5304;48.604;2.096;2023-10-08T06:43:22;10.30;99.90
10512;DHT22;5304;48.604;2.096;2023-10-08T06:46:08;10.30;99.90
10512;DHT22;5304;48.604;2.096;2023-10-08T06:48:56;10.40;99.90
10512;DHT22;5304;48.604;2.096;2023-10-08T06:51:41;10.50;99.90
10512;DHT22;5304;48.604;2.096;2023-10-08T06:54:27;10.50;99.90
10512;DHT22;5304;48.604;2.096;2023-10-08T06:57:14;10.60;99.90
10512;DHT22;5304;48.604;2.096;2023-10-08T06:59:58;10.70;99.90
10512;DHT22;5304;48.604;2.096;2023-10-08T07:02:44;10.80;99.90
10512;DHT22;5304;48.604;2.096;2023-10-08T07:05:29;10.90;99.90
10512;DHT22;5304;48.604;2.096;2023-10-08T07:08:13;11.00;99.90
10512;DHT22;5304;48.604;2.096;2023-10-08T07:11:00;11.00;99.90
10512;DHT22;5304;48.604;2.096;2023-10-08T07:13:45;11.10;99.90
10512;DHT22;5304;48.604;2.096;2023-10-08T07:16:30;11.30;99.90
10512;DHT22;5304;48.604;2.096;2023-10-08T07:19:14;11.40;99.90
10512;DHT22;5304;48.604;2.096;2023-10-08T07:22:01;11.50;99.90
10512;DHT22;5304;48.604;2.096;2023-10-08T07:25:02;11.60;99.90
10512;DHT22;5304;48.604;2.096;2023-10-08T07:27:52;11.70;99.90
10512;DHT22;5304;48.604;2.096;2023-10-08T07:30:38;11.80;99.90
10512;DHT22;5304;48.604;2.096;2023-10-08T07:33:28;12.00;99.90
10512;DHT22;5304;48.604;2.096;2023-10-08T07:36:20;12.30;99.90
10512;DHT22;5304;48.604;2.096;2023-10-08T07:39:05;12.50;99.90
10512;DHT22;5304;48.604;2.096;2023-10-08T07:41:53;12.70;99.90
10512;DHT22;5304;48.604;2.096;2023-10-08T07:44:39;13.00;99.90
10512;DHT22;5304;48.604;2.096;2023-10-08T07:47:23;13.10;99.90
10512;DHT22;5304;48.604;2.096;2023-10-08T07:50:10;13.20;99.90
10512;DHT22;5304;48.604;2.096;2023-10-08T07:52:57;13.30;99.90
10512;DHT22;5304;48.604;2.096;2023-10-08T07:55:42;13.50;99.90
10512;DHT22;5304;48.604;2.096;2023-10-08T07:58:27;13.80;99.90
10512;DHT22;5304;48.604;2.096;2023-10-08T08:01:12;14.00;99.90
10512;DHT22;5304;48.604;2.096;2023-10-08T08:03:58;14.20;99.90
10512;DHT22;5304;48.604;2.096;2023-10-08T08:06:43;14.40;99.90
10512;DHT22;5304;48.604;2.096;2023-10-08T08:09:27;14.80;99.90
10512;DHT22;5304;48.604;2.096;2023-10-08T08:12:12;15.60;99.90
10512;DHT22;5304;48.604;2.096;2023-10-08T08:14:57;16.70;99.90
10512;DHT22;5304;48.604;2.096;2023-10-08T08:17:44;17.80;99.90
10512;DHT22;5304;48.604;2.096;2023-10-08T08:20:31;19.00;99.90
10512;DHT22;5304;48.604;2.096;2023-10-08T08:23:22;19.70;99.90
10512;DHT22;5304;48.604;2.096;2023-10-08T08:26:08;20.40;99.90
10512;DHT22;5304;48.604;2.096;2023-10-08T08:28:56;21.20;99.90
10512;DHT22;5304;48.604;2.096;2023-10-08T08:31:41;22.20;99.90
10512;DHT22;5304;48.604;2.096;2023-10-08T08:34:30;22.50;99.90
10512;DHT22;5304;48.604;2.096;2023-10-08T08:37:15;22.70;99.90
10512;DHT22;5304;48.604;2.096;2023-10-08T08:40:00;23.10;99.90
10512;DHT22;5304;48.604;2.096;2023-10-08T08:42:46;23.60;99.90
10512;DHT22;5304;48.604;2.096;2023-10-08T08:45:35;24.10;99.90
10512;DHT22;5304;48.604;2.096;2023-10-08T08:48:20;24.60;99.90
10512;DHT22;5304;48.604;2.096;2023-10-08T08:51:06;25.10;99.90
10512;DHT22;5304;48.604;2.096;2023-10-08T08:53:51;25.40;99.90
10512;DHT22;5304;48.604;2.096;2023-10-08T08:56:41;25.40;99.90
10512;DHT22;5304;48.604;2.096;2023-10-08T08:59:28;25.20;99.90
10512;DHT22;5304;48.604;2.096;2023-10-08T09:02:14;25.00;99.90
10512;DHT22;5304;48.604;2.096;2023-10-08T09:04:59;25.10;99.90
10512;DHT22;5304;48.604;2.096;2023-10-08T09:07:59;25.00;99.90
10512;DHT22;5304;48.604;2.096;2023-10-08T09:10:47;25.10;99.90
10512;DHT22;5304;48.604;2.096;2023-10-08T09:13:37;24.90;99.90
10512;DHT22;5304;48.604;2.096;2023-10-08T09:16:21;24.90;99.90
10512;DHT22;5304;48.604;2.096;2023-10-08T09:19:07;24.60;99.90
10512;DHT22;5304;48.604;2.096;2023-10-08T09:22:07;24.30;99.90
10512;DHT22;5304;48.604;2.096;2023-10-08T09:24:53;23.90;99.90
10512;DHT22;5304;48.604;2.096;2023-10-08T09:27:38;23.10;99.90
10512;DHT22;5304;48.604;2.096;2023-10-08T09:30:30;23.10;99.90
10512;DHT22;5304;48.604;2.096;2023-10-08T09:33:15;22.50;99.90
10512;DHT22;5304;48.604;2.096;2023-10-08T09:36:01;22.40;99.90
10512;DHT22;5304;48.604;2.096;2023-10-08T09:38:46;22.10;99.90
10512;DHT22;5304;48.604;2.096;2023-10-08T09:41:32;22.00;99.90
10512;DHT22;5304;48.604;2.096;2023-10-08T09:44:19;22.40;99.90
10512;DHT22;5304;48.604;2.096;2023-10-08T09:47:07;22.70;99.90
10512;DHT22;5304;48.604;2.096;2023-10-08T09:50:01;22.90;99.90
10512;DHT22;5304;48.604;2.096;2023-10-08T09:52:57;23.00;99.90
10512;DHT22;5304;48.604;2.096;2023-10-08T09:55:57;23.10;99.90
10512;DHT22;5304;48.604;2.096;2023-10-08T09:58:42;23.20;99.90
10512;DHT22;5304;48.604;2.096;2023-10-08T10:01:28;22.80;99.90
10512;DHT22;5304;48.604;2.096;2023-10-08T10:04:23;22.70;99.90
10512;DHT22;5304;48.604;2.096;2023-10-08T10:07:12;23.30;99.90
10512;DHT22;5304;48.604;2.096;2023-10-08T10:09:58;23.10;99.90
10512;DHT22;5304;48.604;2.096;2023-10-08T10:12:42;23.10;99.90
10512;DHT22;5304;48.604;2.096;2023-10-08T10:15:28;23.30;99.90
10512;DHT22;5304;48.604;2.096;2023-10-08T10:18:28;23.20;99.90
10512;DHT22;5304;48.604;2.096;2023-10-08T10:24:00;23.60;99.90
10512;DHT22;5304;48.604;2.096;2023-10-08T10:26:44;23.80;99.90
10512;DHT22;5304;48.604;2.096;2023-10-08T10:29:33;24.20;99.90
10512;DHT22;5304;48.604;2.096;2023-10-08T10:32:17;24.50;99.90
10512;DHT22;5304;48.604;2.096;2023-10-08T10:35:03;24.60;99.90
10512;DHT22;5304;48.604;2.096;2023-10-08T10:37:49;24.90;99.90
10512;DHT22;5304;48.604;2.096;2023-10-08T10:40:39;25.00;99.90
10512;DHT22;5304;48.604;2.096;2023-10-08T10:43:25;24.90;99.90
10512;DHT22;5304;48.604;2.096;2023-10-08T10:46:17;25.00;99.90
10512;DHT22;5304;48.604;2.096;2023-10-08T10:49:15;25.10;99.90
10512;DHT22;5304;48.604;2.096;2023-10-08T10:52:02;25.00;99.90
10512;DHT22;5304;48.604;2.096;2023-10-08T10:54:49;25.10;99.90
10512;DHT22;5304;48.604;2.096;2023-10-08T10:57:56;25.00;99.90
10512;DHT22;5304;48.604;2.096;2023-10-08T11:00:43;25.30;99.90
10512;DHT22;5304;48.604;2.096;2023-10-08T11:03:27;25.40;99.90
10512;DHT22;5304;48.604;2.096;2023-10-08T11:06:13;25.50;99.90
10512;DHT22;5304;48.604;2.096;2023-10-08T11:09:06;25.50;99.90
10512;DHT22;5304;48.604;2.096;2023-10-08T11:11:58;25.60;99.90
10512;DHT22;5304;48.604;2.096;2023-10-08T11:14:45;25.40;99.90
10512;DHT22;5304;48.604;2.096;2023-10-08T11:17:32;25.30;99.90
10512;DHT22;5304;48.604;2.096;2023-10-08T11:26:12;25.40;99.90
10512;DHT22;5304;48.604;2.096;2023-10-08T11:29:00;25.60;99.90
10512;DHT22;5304;48.604;2.096;2023-10-08T11:31:44;25.80;99.90
10512;DHT22;5304;48.604;2.096;2023-10-08T11:34:32;25.90;99.90
10512;DHT22;5304;48.604;2.096;2023-10-08T11:37:32;26.10;99.90
10512;DHT22;5304;48.604;2.096;2023-10-08T11:40:24;26.30;99.90
10512;DHT22;5304;48.604;2.096;2023-10-08T11:43:32;26.30;99.90
10512;DHT22;5304;48.604;2.096;2023-10-08T11:46:30;26.20;99.90
10512;DHT22;5304;48.604;2.096;2023-10-08T11:49:22;26.40;99.90
10512;DHT22;5304;48.604;2.096;2023-10-08T11:52:10;26.50;99.90
10512;DHT22;5304;48.604;2.096;2023-10-08T11:54:55;26.50;99.90
10512;DHT22;5304;48.604;2.096;2023-10-08T11:57:39;26.30;99.90
10512;DHT22;5304;48.604;2.096;2023-10-08T12:00:29;26.20;99.90
10512;DHT22;5304;48.604;2.096;2023-10-08T12:03:14;26.40;99.90
10512;DHT22;5304;48.604;2.096;2023-10-08T12:06:02;26.60;99.90
10512;DHT22;5304;48.604;2.096;2023-10-08T12:08:49;26.70;99.90
10512;DHT22;5304;48.604;2.096;2023-10-08T12:11:37;26.80;99.90
10512;DHT22;5304;48.604;2.096;2023-10-08T12:14:23;26.80;99.90
10512;DHT22;5304;48.604;2.096;2023-10-08T12:17:14;26.60;99.90
10512;DHT22;5304;48.604;2.096;2023-10-08T12:20:00;26.40;99.90
10512;DHT22;5304;48.604;2.096;2023-10-08T12:22:56;26.60;99.90
10512;DHT22;5304;48.604;2.096;2023-10-08T12:25:40;26.50;99.90
10512;DHT22;5304;48.604;2.096;2023-10-08T12:28:31;26.60;99.90
10512;DHT22;5304;48.604;2.096;2023-10-08T12:31:19;26.70;99.90
10512;DHT22;5304;48.604;2.096;2023-10-08T12:34:07;26.80;99.90
10512;DHT22;5304;48.604;2.096;2023-10-08T12:36:55;26.90;99.90
10512;DHT22;5304;48.604;2.096;2023-10-08T12:39:40;27.00;99.90
10512;DHT22;5304;48.604;2.096;2023-10-08T12:42:40;27.00;99.90
10512;DHT22;5304;48.604;2.096;2023-10-08T12:45:28;27.10;99.90
10512;DHT22;5304;48.604;2.096;2023-10-08T12:48:14;27.10;99.90
10512;DHT22;5304;48.604;2.096;2023-10-08T12:50:58;27.00;99.90
10512;DHT22;5304;48.604;2.096;2023-10-08T12:53:44;26.90;99.90
10512;DHT22;5304;48.604;2.096;2023-10-08T12:56:35;27.00;99.90
10512;DHT22;5304;48.604;2.096;2023-10-08T12:59:20;27.10;99.90
10512;DHT22;5304;48.604;2.096;2023-10-08T13:02:04;27.10;99.90
10512;DHT22;5304;48.604;2.096;2023-10-08T13:04:55;27.20;99.90
10512;DHT22;5304;48.604;2.096;2023-10-08T13:07:39;27.30;99.90
10512;DHT22;5304;48.604;2.096;2023-10-08T13:10:27;27.30;99.90
10512;DHT22;5304;48.604;2.096;2023-10-08T13:13:11;27.30;99.90
10512;DHT22;5304;48.604;2.096;2023-10-08T13:15:56;27.40;99.90
10512;DHT22;5304;48.604;2.096;2023-10-08T13:18:44;27.30;99.90
10512;DHT22;5304;48.604;2.096;2023-10-08T13:21:28;27.20;99.90
10512;DHT22;5304;48.604;2.096;2023-10-08T13:24:13;27.10;99.90
10512;DHT22;5304;48.604;2.096;2023-10-08T13:26:57;27.10;99.90
10512;DHT22;5304;48.604;2.096;2023-10-08T13:29:42;27.20;99.90
10512;DHT22;5304;48.604;2.096;2023-10-08T13:32:27;27.40;99.90
10512;DHT22;5304;48.604;2.096;2023-10-08T13:35:11;27.40;99.90
10512;DHT22;5304;48.604;2.096;2023-10-08T13:37:56;27.30;99.90
10512;DHT22;5304;48.604;2.096;2023-10-08T13:40:40;27.10;99.90
10512;DHT22;5304;48.604;2.096;2023-10-08T13:43:31;26.90;99.90
10512;DHT22;5304;48.604;2.096;2023-10-08T13:46:20;27.00;99.90
10512;DHT22;5304;48.604;2.096;2023-10-08T13:49:07;27.00;99.90
10512;DHT22;5304;48.604;2.096;2023-10-08T13:51:52;27.00;99.90
10512;DHT22;5304;48.604;2.096;2023-10-08T13:54:43;27.00;99.90
10512;DHT22;5304;48.604;2.096;2023-10-08T13:57:35;27.10;99.90
10512;DHT22;5304;48.604;2.096;2023-10-08T14:00:19;27.20;99.90
10512;DHT22;5304;48.604;2.096;2023-10-08T14:03:10;27.30;99.90
10512;DHT22;5304;48.604;2.096;2023-10-08T14:05:55;27.30;99.90
10512;DHT22;5304;48.604;2.096;2023-10-08T14:08:43;27.20;99.90
10512;DHT22;5304;48.604;2.096;2023-10-08T14:11:39;27.10;99.90
10512;DHT22;5304;48.604;2.096;2023-10-08T14:14:23;27.10;99.90
10512;DHT22;5304;48.604;2.096;2023-10-08T14:17:14;27.10;99.90
10512;DHT22;5304;48.604;2.096;2023-10-08T14:20:21;27.10;99.90
10512;DHT22;5304;48.604;2.096;2023-10-08T14:23:06;27.10;99.90
10512;DHT22;5304;48.604;2.096;2023-10-08T14:25:52;27.10;99.90
10512;DHT22;5304;48.604;2.096;2023-10-08T14:28:39;27.10;99.90
10512;DHT22;5304;48.604;2.096;2023-10-08T14:31:35;27.00;99.90
10512;DHT22;5304;48.604;2.096;2023-10-08T14:34:23;26.90;99.90
10512;DHT22;5304;48.604;2.096;2023-10-08T14:37:26;26.90;99.90
10512;DHT22;5304;48.604;2.096;2023-10-08T14:40:29;26.80;99.90
10512;DHT22;5304;48.604;2.096;2023-10-08T14:43:32;26.80;99.90
10512;DHT22;5304;48.604;2.096;2023-10-08T14:46:18;26.80;99.90
10512;DHT22;5304;48.604;2.096;2023-10-08T14:49:03;26.80;99.90
10512;DHT22;5304;48.604;2.096;2023-10-08T14:51:53;26.70;99.90
10512;DHT22;5304;48.604;2.096;2023-10-08T14:54:38;26.60;99.90
10512;DHT22;5304;48.604;2.096;2023-10-08T14:57:23;26.60;99.90
10512;DHT22;5304;48.604;2.096;2023-10-08T15:00:10;26.60;99.90
10512;DHT22;5304;48.604;2.096;2023-10-08T15:02:55;26.60;99.90
10512;DHT22;5304;48.604;2.096;2023-10-08T15:05:40;26.50;99.90
10512;DHT22;5304;48.604;2.096;2023-10-08T15:08:24;26.40;99.90
10512;DHT22;5304;48.604;2.096;2023-10-08T15:11:10;26.30;99.90
10512;DHT22;5304;48.604;2.096;2023-10-08T15:13:55;26.30;99.90
10512;DHT22;5304;48.604;2.096;2023-10-08T15:16:39;26.20;99.90
10512;DHT22;5304;48.604;2.096;2023-10-08T15:19:24;26.20;99.90
10512;DHT22;5304;48.604;2.096;2023-10-08T15:22:08;26.20;99.90
10512;DHT22;5304;48.604;2.096;2023-10-08T15:24:52;26.10;99.90
10512;DHT22;5304;48.604;2.096;2023-10-08T15:27:38;25.90;99.90
10512;DHT22;5304;48.604;2.096;2023-10-08T15:30:28;25.90;99.90
10512;DHT22;5304;48.604;2.096;2023-10-08T15:33:12;25.80;99.90
10512;DHT22;5304;48.604;2.096;2023-10-08T15:35:57;25.80;99.90
10512;DHT22;5304;48.604;2.096;2023-10-08T15:38:42;25.70;99.90
10512;DHT22;5304;48.604;2.096;2023-10-08T15:41:27;25.60;99.90
10512;DHT22;5304;48.604;2.096;2023-10-08T15:44:11;25.50;99.90
10512;DHT22;5304;48.604;2.096;2023-10-08T15:46:56;25.40;99.90
10512;DHT22;5304;48.604;2.096;2023-10-08T15:49:40;25.30;99.90
10512;DHT22;5304;48.604;2.096;2023-10-08T15:52:25;25.30;99.90
10512;DHT22;5304;48.604;2.096;2023-10-08T15:55:10;25.20;99.90
10512;DHT22;5304;48.604;2.096;2023-10-08T15:57:55;25.10;99.90
10512;DHT22;5304;48.604;2.096;2023-10-08T16:00:39;25.00;99.90
10512;DHT22;5304;48.604;2.096;2023-10-08T16:03:23;24.80;99.90
10512;DHT22;5304;48.604;2.096;2023-10-08T16:06:08;24.70;99.90
10512;DHT22;5304;48.604;2.096;2023-10-08T16:08:52;24.60;99.90
10512;DHT22;5304;48.604;2.096;2023-10-08T16:11:37;24.50;99.90
10512;DHT22;5304;48.604;2.096;2023-10-08T16:14:22;24.40;99.90
10512;DHT22;5304;48.604;2.096;2023-10-08T16:17:07;24.30;99.90
10512;DHT22;5304;48.604;2.096;2023-10-08T16:19:53;24.30;99.90
10512;DHT22;5304;48.604;2.096;2023-10-08T16:22:37;24.20;99.90
10512;DHT22;5304;48.604;2.096;2023-10-08T16:25:23;24.20;99.90
10512;DHT22;5304;48.604;2.096;2023-10-08T16:28:07;24.20;99.90
10512;DHT22;5304;48.604;2.096;2023-10-08T16:30:52;24.10;99.90
10512;DHT22;5304;48.604;2.096;2023-10-08T16:33:37;23.90;99.90
10512;DHT22;5304;48.604;2.096;2023-10-08T16:36:21;23.80;99.90
10512;DHT22;5304;48.604;2.096;2023-10-08T16:39:06;23.60;99.90
10512;DHT22;5304;48.604;2.096;2023-10-08T16:41:54;23.50;99.90
10512;DHT22;5304;48.604;2.096;2023-10-08T16:44:39;23.30;99.90
10512;DHT22;5304;48.604;2.096;2023-10-08T16:47:23;23.10;99.90
10512;DHT22;5304;48.604;2.096;2023-10-08T16:50:08;22.90;99.90
10512;DHT22;5304;48.604;2.096;2023-10-08T16:52:52;22.70;99.90
10512;DHT22;5304;48.604;2.096;2023-10-08T16:55:38;22.50;99.90
10512;DHT22;5304;48.604;2.096;2023-10-08T16:58:22;22.30;99.90
10512;DHT22;5304;48.604;2.096;2023-10-08T17:01:07;22.10;99.90
10512;DHT22;5304;48.604;2.096;2023-10-08T17:03:53;22.00;99.90
10512;DHT22;5304;48.604;2.096;2023-10-08T17:06:39;21.90;99.90
10512;DHT22;5304;48.604;2.096;2023-10-08T17:09:23;21.70;99.90
10512;DHT22;5304;48.604;2.096;2023-10-08T17:12:11;21.50;99.90
10512;DHT22;5304;48.604;2.096;2023-10-08T17:14:55;21.40;99.90
10512;DHT22;5304;48.604;2.096;2023-10-08T17:17:40;21.30;99.90
10512;DHT22;5304;48.604;2.096;2023-10-08T17:20:24;21.20;99.90
10512;DHT22;5304;48.604;2.096;2023-10-08T17:23:09;21.10;99.90
10512;DHT22;5304;48.604;2.096;2023-10-08T17:25:53;20.90;99.90
10512;DHT22;5304;48.604;2.096;2023-10-08T17:28:37;20.80;99.90
10512;DHT22;5304;48.604;2.096;2023-10-08T17:31:25;20.70;99.90
10512;DHT22;5304;48.604;2.096;2023-10-08T17:34:09;20.60;99.90
10512;DHT22;5304;48.604;2.096;2023-10-08T17:36:58;20.50;99.90
10512;DHT22;5304;48.604;2.096;2023-10-08T17:39:42;20.30;99.90
10512;DHT22;5304;48.604;2.096;2023-10-08T17:42:29;20.20;99.90
10512;DHT22;5304;48.604;2.096;2023-10-08T17:45:13;20.10;99.90
10512;DHT22;5304;48.604;2.096;2023-10-08T17:47:58;20.00;99.90
10512;DHT22;5304;48.604;2.096;2023-10-08T17:50:42;19.90;99.90
10512;DHT22;5304;48.604;2.096;2023-10-08T17:53:27;19.80;99.90
10512;DHT22;5304;48.604;2.096;2023-10-08T17:56:13;19.60;99.90
10512;DHT22;5304;48.604;2.096;2023-10-08T17:58:58;19.60;99.90
10512;DHT22;5304;48.604;2.096;2023-10-08T18:01:44;19.50;99.90
10512;DHT22;5304;48.604;2.096;2023-10-08T18:04:29;19.40;99.90
10512;DHT22;5304;48.604;2.096;2023-10-08T18:07:13;19.30;99.90
10512;DHT22;5304;48.604;2.096;2023-10-08T18:09:57;19.20;99.90
10512;DHT22;5304;48.604;2.096;2023-10-08T18:12:43;19.10;99.90
10512;DHT22;5304;48.604;2.096;2023-10-08T18:15:27;19.00;99.90
10512;DHT22;5304;48.604;2.096;2023-10-08T18:18:12;18.90;99.90
10512;DHT22;5304;48.604;2.096;2023-10-08T18:20:57;18.80;99.90
10512;DHT22;5304;48.604;2.096;2023-10-08T18:23:42;18.80;99.90
10512;DHT22;5304;48.604;2.096;2023-10-08T18:26:27;18.70;99.90
10512;DHT22;5304;48.604;2.096;2023-10-08T18:29:12;18.50;99.90
10512;DHT22;5304;48.604;2.096;2023-10-08T18:31:57;18.50;99.90
10512;DHT22;5304;48.604;2.096;2023-10-08T18:34:44;18.40;99.90
10512;DHT22;5304;48.604;2.096;2023-10-08T18:37:29;18.30;99.90
10512;DHT22;5304;48.604;2.096;2023-10-08T18:40:14;18.20;99.90
10512;DHT22;5304;48.604;2.096;2023-10-08T18:42:58;18.10;99.90
10512;DHT22;5304;48.604;2.096;2023-10-08T18:45:43;18.10;99.90
10512;DHT22;5304;48.604;2.096;2023-10-08T18:48:28;18.00;99.90
10512;DHT22;5304;48.604;2.096;2023-10-08T18:51:15;18.00;99.90
10512;DHT22;5304;48.604;2.096;2023-10-08T18:54:03;18.00;99.90
10512;DHT22;5304;48.604;2.096;2023-10-08T18:56:50;18.10;99.90
10512;DHT22;5304;48.604;2.096;2023-10-08T18:59:35;18.00;99.90
10512;DHT22;5304;48.604;2.096;2023-10-08T19:02:20;17.90;99.90
10512;DHT22;5304;48.604;2.096;2023-10-08T19:05:06;17.90;99.90
10512;DHT22;5304;48.604;2.096;2023-10-08T19:07:51;17.80;99.90
10512;DHT22;5304;48.604;2.096;2023-10-08T19:10:38;17.80;99.90
10512;DHT22;5304;48.604;2.096;2023-10-08T19:13:22;17.70;99.90
10512;DHT22;5304;48.604;2.096;2023-10-08T19:16:09;17.60;99.90
10512;DHT22;5304;48.604;2.096;2023-10-08T19:18:53;17.50;99.90
10512;DHT22;5304;48.604;2.096;2023-10-08T19:21:38;17.50;99.90
10512;DHT22;5304;48.604;2.096;2023-10-08T19:24:24;17.40;99.90
10512;DHT22;5304;48.604;2.096;2023-10-08T19:27:10;17.40;99.90
10512;DHT22;5304;48.604;2.096;2023-10-08T19:29:55;17.30;99.90
10512;DHT22;5304;48.604;2.096;2023-10-08T19:32:43;17.20;99.90
10512;DHT22;5304;48.604;2.096;2023-10-08T19:35:27;17.20;99.90
10512;DHT22;5304;48.604;2.096;2023-10-08T19:38:14;17.10;99.90
10512;DHT22;5304;48.604;2.096;2023-10-08T19:40:58;17.00;99.90
10512;DHT22;5304;48.604;2.096;2023-10-08T19:43:43;16.90;99.90
10512;DHT22;5304;48.604;2.096;2023-10-08T19:46:28;16.80;99.90
10512;DHT22;5304;48.604;2.096;2023-10-08T19:49:12;16.70;99.90
10512;DHT22;5304;48.604;2.096;2023-10-08T19:51:58;16.60;99.90
10512;DHT22;5304;48.604;2.096;2023-10-08T19:54:42;16.50;99.90
10512;DHT22;5304;48.604;2.096;2023-10-08T19:57:26;16.50;99.90
10512;DHT22;5304;48.604;2.096;2023-10-08T20:00:11;16.40;99.90
10512;DHT22;5304;48.604;2.096;2023-10-08T20:02:58;16.40;99.90
10512;DHT22;5304;48.604;2.096;2023-10-08T20:05:43;16.40;99.90
10512;DHT22;5304;48.604;2.096;2023-10-08T20:08:27;16.50;99.90
10512;DHT22;5304;48.604;2.096;2023-10-08T20:11:11;16.40;99.90
10512;DHT22;5304;48.604;2.096;2023-10-08T20:13:57;16.40;99.90
10512;DHT22;5304;48.604;2.096;2023-10-08T20:16:41;16.30;99.90
10512;DHT22;5304;48.604;2.096;2023-10-08T20:19:26;16.40;99.90
10512;DHT22;5304;48.604;2.096;2023-10-08T20:22:14;16.30;99.90
10512;DHT22;5304;48.604;2.096;2023-10-08T20:25:00;16.30;99.90
10512;DHT22;5304;48.604;2.096;2023-10-08T20:27:45;16.20;99.90
10512;DHT22;5304;48.604;2.096;2023-10-08T20:30:31;16.10;99.90
10512;DHT22;5304;48.604;2.096;2023-10-08T20:33:18;16.00;99.90
10512;DHT22;5304;48.604;2.096;2023-10-08T20:36:04;15.90;99.90
10512;DHT22;5304;48.604;2.096;2023-10-08T20:38:50;15.90;99.90
10512;DHT22;5304;48.604;2.096;2023-10-08T20:41:34;15.80;99.90
10512;DHT22;5304;48.604;2.096;2023-10-08T20:44:19;15.70;99.90
